createdAt,value
2017-02-03T00:00:26.075Z,-0.1
2017-02-03T00:01:35.973Z,-0.15
2017-02-03T00:02:45.820Z,-0.13
2017-02-03T00:03:56.085Z,-0.1
2017-02-03T00:05:05.768Z,-0.12
2017-02-03T00:06:16.063Z,-0.13
2017-02-03T00:07:25.913Z,-0.19
2017-02-03T00:08:36.237Z,-0.13
2017-02-03T00:09:46.124Z,-0.12
2017-02-03T00:10:56.622Z,-0.12
2017-02-03T00:12:06.498Z,-0.15
2017-02-03T00:13:16.761Z,-0.17
2017-02-03T00:14:27.038Z,-0.04
2017-02-03T00:15:36.989Z,0.08
2017-02-03T00:16:47.665Z,0.02
2017-02-03T00:17:57.140Z,0.08
2017-02-03T00:19:07.414Z,0.03
2017-02-03T00:20:16.909Z,0.08
2017-02-03T00:21:27.169Z,0.09
2017-02-03T00:22:37.326Z,-0.04
2017-02-03T00:23:47.209Z,0.14
2017-02-03T00:24:57.455Z,0.05
2017-02-03T00:26:06.918Z,0.05
2017-02-03T00:27:16.364Z,0.08
2017-02-03T00:28:26.148Z,0.09
2017-02-03T00:29:36.396Z,0.09
2017-02-03T00:30:46.734Z,0.2
2017-02-03T00:31:56.981Z,0.12
2017-02-03T00:33:06.431Z,0.14
2017-02-03T00:34:16.965Z,0.03
2017-02-03T00:35:27.257Z,0.06
2017-02-03T00:36:37.574Z,0.01
2017-02-03T00:37:47.031Z,0.03
2017-02-03T00:38:56.885Z,0.06
2017-02-03T00:40:06.566Z,0.11
2017-02-03T00:41:16.126Z,0.11
2017-02-03T00:42:26.358Z,0.24
2017-02-03T00:43:36.593Z,0.2
2017-02-03T00:44:46.884Z,0.21
2017-02-03T00:45:56.171Z,0.22
2017-02-03T00:47:06.499Z,0.22
2017-02-03T00:48:16.860Z,0.24
2017-02-03T00:49:26.737Z,0.27
2017-02-03T00:50:37.040Z,0.21
2017-02-03T00:51:47.549Z,0.31
2017-02-03T00:52:57.931Z,0.31
2017-02-03T00:54:08.239Z,0.36
2017-02-03T00:55:18.591Z,0.2
2017-02-03T00:56:28.443Z,0.35
2017-02-03T00:57:38.594Z,0.22
2017-02-03T00:58:48.882Z,0.22
2017-02-03T00:59:58.725Z,0.24
2017-02-03T01:01:08.595Z,0.2
2017-02-03T01:02:18.860Z,0.2
2017-02-03T01:03:28.959Z,0.24
2017-02-03T01:04:39.352Z,0.25
2017-02-03T01:05:49.586Z,0.24
2017-02-03T01:06:59.852Z,0.21
2017-02-03T01:08:09.844Z,0.21
2017-02-03T01:09:20.002Z,0.16
2017-02-03T01:10:29.850Z,0.08
2017-02-03T01:11:39.710Z,0.08
2017-02-03T01:12:49.998Z,0.16
2017-02-03T01:14:01.246Z,0.22
2017-02-03T01:15:11.801Z,0.14
2017-02-03T01:16:21.679Z,0.16
2017-02-03T01:17:31.522Z,0.24
2017-02-03T01:18:41.771Z,0.22
2017-02-03T01:19:51.629Z,0.14
2017-02-03T01:21:01.718Z,0.2
2017-02-03T01:22:10.788Z,0.21
2017-02-03T01:23:21.096Z,0.28
2017-02-03T01:24:31.380Z,0.31
2017-02-03T01:25:41.632Z,0.24
2017-02-03T01:26:51.010Z,0.22
2017-02-03T01:28:01.251Z,0.2
2017-02-03T01:29:11.522Z,0.14
2017-02-03T01:30:21.352Z,0.09
2017-02-03T01:31:31.192Z,0.08
2017-02-03T01:32:41.681Z,0.08
2017-02-03T01:33:51.607Z,0.03
2017-02-03T01:35:01.735Z,0.09
2017-02-03T01:36:11.592Z,0.09
2017-02-03T01:37:21.844Z,0.2
2017-02-03T01:38:32.323Z,0.16
2017-02-03T01:39:42.590Z,0.12
2017-02-03T01:40:52.421Z,0.2
2017-02-03T01:42:02.299Z,0.2
2017-02-03T01:43:12.152Z,0.17
2017-02-03T01:44:22.242Z,0.2
2017-02-03T01:45:32.571Z,0.24
2017-02-03T01:46:42.827Z,0.2
2017-02-03T01:47:53.082Z,0.24
2017-02-03T01:49:02.931Z,0.24
2017-02-03T01:50:13.441Z,0.22
2017-02-03T01:51:23.746Z,0.3
2017-02-03T01:52:34.017Z,0.33
2017-02-03T01:53:43.487Z,0.3
2017-02-03T01:54:53.847Z,0.27
2017-02-03T01:56:04.340Z,0.25
2017-02-03T01:57:14.217Z,0.21
2017-02-03T01:58:23.761Z,0.2
2017-02-03T01:59:34.045Z,0.28
2017-02-03T02:00:43.964Z,0.21
2017-02-03T02:01:54.522Z,0.2
2017-02-03T02:03:04.764Z,0.21
2017-02-03T02:04:14.600Z,0.2
2017-02-03T02:05:24.491Z,0.25
2017-02-03T02:06:34.469Z,0.2
2017-02-03T02:07:44.553Z,0.2
2017-02-03T02:08:54.399Z,0.21
2017-02-03T02:10:04.309Z,0.21
2017-02-03T02:11:13.740Z,0.11
2017-02-03T02:12:23.981Z,0.09
2017-02-03T02:13:34.488Z,0.21
2017-02-03T02:14:44.327Z,0.22
2017-02-03T02:15:54.573Z,0.08
2017-02-03T02:17:04.922Z,0.12
2017-02-03T02:18:15.189Z,0.09
2017-02-03T02:19:25.672Z,0.16
2017-02-03T02:20:35.545Z,0.12
2017-02-03T02:21:45.804Z,0.14
2017-02-03T02:22:56.056Z,0.27
2017-02-03T02:24:06.334Z,0.28
2017-02-03T02:25:16.480Z,0.38
2017-02-03T02:26:26.312Z,0.35
2017-02-03T02:27:36.545Z,0.31
2017-02-03T02:28:46.862Z,0.28
2017-02-03T02:29:56.875Z,0.28
2017-02-03T02:31:06.957Z,0.31
2017-02-03T02:32:17.256Z,0.3
2017-02-03T02:33:27.501Z,0.3
2017-02-03T02:34:37.390Z,0.33
2017-02-03T02:35:47.280Z,0.33
2017-02-03T02:36:57.003Z,0.33
2017-02-03T02:38:07.249Z,0.35
2017-02-03T02:39:17.522Z,0.39
2017-02-03T02:40:26.967Z,0.4
2017-02-03T02:41:36.808Z,0.31
2017-02-03T02:42:47.314Z,0.46
2017-02-03T02:43:57.202Z,0.36
2017-02-03T02:45:06.650Z,0.31
2017-02-03T02:46:16.926Z,0.33
2017-02-03T02:47:27.181Z,0.3
2017-02-03T02:48:37.309Z,0.3
2017-02-03T02:49:47.217Z,0.36
2017-02-03T02:50:57.618Z,0.33
2017-02-03T02:52:07.481Z,0.35
2017-02-03T02:53:17.718Z,0.35
2017-02-03T02:54:28.258Z,0.31
2017-02-03T02:55:38.492Z,0.42
2017-02-03T02:56:48.752Z,0.33
2017-02-03T02:57:57.783Z,0.31
2017-02-03T02:59:08.086Z,0.31
2017-02-03T03:00:18.594Z,0.39
2017-02-03T03:01:28.841Z,0.35
2017-02-03T03:02:39.114Z,0.35
2017-02-03T03:03:49.020Z,0.31
2017-02-03T03:04:59.312Z,0.35
2017-02-03T03:06:09.834Z,0.33
2017-02-03T03:07:19.700Z,0.24
2017-02-03T03:08:29.985Z,0.24
2017-02-03T03:09:40.315Z,0.2
2017-02-03T03:10:50.632Z,0.24
2017-02-03T03:12:00.359Z,0.2
2017-02-03T03:13:09.912Z,0.16
2017-02-03T03:14:19.756Z,0.14
2017-02-03T03:15:29.997Z,0.17
2017-02-03T03:16:40.316Z,0.14
2017-02-03T03:17:50.412Z,0.16
2017-02-03T03:19:00.672Z,0.24
2017-02-03T03:20:11.196Z,0.08
2017-02-03T03:21:21.031Z,0.09
2017-02-03T03:22:30.872Z,0.09
2017-02-03T03:23:41.175Z,0.2
2017-02-03T03:24:51.564Z,0.16
2017-02-03T03:26:01.419Z,0.09
2017-02-03T03:27:11.271Z,0.05
2017-02-03T03:28:21.519Z,0.11
2017-02-03T03:29:31.222Z,0.11
2017-02-03T03:30:41.556Z,0.09
2017-02-03T03:31:51.126Z,0.09
2017-02-03T03:33:01.385Z,0.08
2017-02-03T03:34:11.629Z,0.11
2017-02-03T03:35:21.481Z,0.09
2017-02-03T03:36:31.719Z,0.05
2017-02-03T03:37:42.034Z,0.06
2017-02-03T03:38:52.313Z,0.14
2017-02-03T03:40:02.320Z,0.06
2017-02-03T03:41:12.030Z,0.06
2017-02-03T03:42:22.337Z,0.06
2017-02-03T03:43:32.209Z,0.08
2017-02-03T03:44:42.047Z,0.06
2017-02-03T03:45:52.325Z,0.02
2017-02-03T03:47:02.056Z,0.01
2017-02-03T03:48:12.331Z,0.03
2017-02-03T03:49:22.572Z,-0.01
2017-02-03T03:50:32.405Z,0.03
2017-02-03T03:51:42.652Z,0.05
2017-02-03T03:52:53.264Z,0.11
2017-02-03T03:54:02.704Z,0.01
2017-02-03T03:55:12.533Z,0.01
2017-02-03T03:56:22.563Z,-0.02
2017-02-03T03:57:32.866Z,0.02
2017-02-03T03:58:42.964Z,-0.02
2017-02-03T03:59:52.828Z,-0.02
2017-02-03T04:01:02.709Z,0.05
2017-02-03T04:02:12.965Z,-0.01
2017-02-03T04:03:22.865Z,0.02
2017-02-03T04:04:33.365Z,0.08
2017-02-03T04:05:43.668Z,0.12
2017-02-03T04:06:53.602Z,0.09
2017-02-03T04:08:03.863Z,0.16
2017-02-03T04:09:14.104Z,0.12
2017-02-03T04:10:24.628Z,0.12
2017-02-03T04:11:34.893Z,0.12
2017-02-03T04:12:44.730Z,0.08
2017-02-03T04:13:54.601Z,0.14
2017-02-03T04:15:04.523Z,0.01
2017-02-03T04:16:15.082Z,0.02
2017-02-03T04:17:25.369Z,0.05
2017-02-03T04:18:34.833Z,0.03
2017-02-03T04:19:44.669Z,-0.01
2017-02-03T04:20:54.922Z,-0.02
2017-02-03T04:22:05.489Z,0.01
2017-02-03T04:23:15.819Z,-0.02
2017-02-03T04:24:25.670Z,0.09
2017-02-03T04:25:35.907Z,0.01
2017-02-03T04:26:46.245Z,0.02
2017-02-03T04:27:56.438Z,0.02
2017-02-03T04:29:06.271Z,0.02
2017-02-03T04:30:16.524Z,0.08
2017-02-03T04:31:26.790Z,-0.01
2017-02-03T04:32:37.146Z,-0.02
2017-02-03T04:33:47.227Z,0.01
2017-02-03T04:34:57.118Z,0.05
2017-02-03T04:36:07.356Z,0.03
2017-02-03T04:37:17.636Z,-0.06
2017-02-03T04:38:27.867Z,-0.04
2017-02-03T04:39:37.235Z,-0.01
2017-02-03T04:40:46.664Z,0.06
2017-02-03T04:41:56.916Z,0.14
2017-02-03T04:43:07.161Z,0.08
2017-02-03T04:44:17.041Z,0.16
2017-02-03T04:45:26.732Z,0.06
2017-02-03T04:46:36.597Z,0.11
2017-02-03T04:47:46.860Z,0.03
2017-02-03T04:48:56.734Z,0.11
2017-02-03T04:50:07.002Z,0.11
2017-02-03T04:51:17.084Z,0.09
2017-02-03T04:52:27.329Z,0.09
2017-02-03T04:53:37.570Z,0.12
2017-02-03T04:54:47.394Z,0.03
2017-02-03T04:55:57.231Z,0.06
2017-02-03T04:57:07.749Z,0.09
2017-02-03T04:58:18.074Z,0.09
2017-02-03T04:59:28.088Z,0.06
2017-02-03T05:00:38.349Z,0.14
2017-02-03T05:01:48.282Z,0.12
2017-02-03T05:02:58.819Z,0.08
2017-02-03T05:04:09.084Z,0.11
2017-02-03T05:05:19.373Z,0.16
2017-02-03T05:06:29.297Z,0.12
2017-02-03T05:07:39.635Z,0.16
2017-02-03T05:08:49.437Z,0.14
2017-02-03T05:09:59.776Z,0.21
2017-02-03T05:11:08.803Z,0.09
2017-02-03T05:12:19.035Z,0.16
2017-02-03T05:13:28.481Z,0.21
2017-02-03T05:14:38.553Z,0.16
2017-02-03T05:15:48.449Z,0.11
2017-02-03T05:16:58.698Z,0.12
2017-02-03T05:18:08.944Z,0.06
2017-02-03T05:19:19.300Z,0.14
2017-02-03T05:20:29.819Z,0.12
2017-02-03T05:21:40.076Z,0.09
2017-02-03T05:22:50.356Z,0.05
2017-02-03T05:24:00.205Z,0.05
2017-02-03T05:25:10.573Z,0.06
2017-02-03T05:26:20.702Z,0.09
2017-02-03T05:27:31.008Z,0.12
2017-02-03T05:28:40.846Z,0.12
2017-02-03T05:29:51.103Z,0.08
2017-02-03T05:31:00.932Z,0.09
2017-02-03T05:32:11.018Z,-0.01
2017-02-03T05:33:21.279Z,0.06
2017-02-03T05:34:31.527Z,0.05
2017-02-03T05:35:41.777Z,0.03
2017-02-03T05:36:52.148Z,0.12
2017-02-03T05:38:02.363Z,0.08
2017-02-03T05:39:12.665Z,0.03
2017-02-03T05:40:22.968Z,0.22
2017-02-03T05:41:33.255Z,0.22
2017-02-03T05:42:43.358Z,0.16
2017-02-03T05:43:53.499Z,0.14
2017-02-03T05:45:03.739Z,0.12
2017-02-03T05:46:13.592Z,0.22
2017-02-03T05:47:23.907Z,0.36
2017-02-03T05:48:33.779Z,0.24
2017-02-03T05:49:44.279Z,0.25
2017-02-03T05:50:53.730Z,0.27
2017-02-03T05:52:03.566Z,0.31
2017-02-03T05:53:13.438Z,0.28
2017-02-03T05:54:23.682Z,0.27
2017-02-03T05:55:34.175Z,0.27
2017-02-03T05:56:44.424Z,0.31
2017-02-03T05:57:54.293Z,0.3
2017-02-03T05:59:03.729Z,0.25
2017-02-03T06:00:13.643Z,0.31
2017-02-03T06:01:24.141Z,0.31
2017-02-03T06:02:34.396Z,0.3
2017-02-03T06:03:44.705Z,0.33
2017-02-03T06:04:54.548Z,0.35
2017-02-03T06:06:04.410Z,0.33
2017-02-03T06:07:15.010Z,0.33
2017-02-03T06:08:25.317Z,0.31
2017-02-03T06:09:35.390Z,0.33
2017-02-03T06:10:45.633Z,0.33
2017-02-03T06:11:55.873Z,0.28
2017-02-03T06:13:06.004Z,0.28
2017-02-03T06:14:15.463Z,0.49
2017-02-03T06:15:25.355Z,0.31
2017-02-03T06:16:35.200Z,0.33
2017-02-03T06:17:45.038Z,0.38
2017-02-03T06:18:54.757Z,0.43
2017-02-03T06:20:05.104Z,0.36
2017-02-03T06:21:14.955Z,0.39
2017-02-03T06:22:24.829Z,0.38
2017-02-03T06:23:35.117Z,0.33
2017-02-03T06:24:45.199Z,0.31
2017-02-03T06:25:55.073Z,0.31
2017-02-03T06:27:05.358Z,0.24
2017-02-03T06:28:15.666Z,0.24
2017-02-03T06:29:25.550Z,0.33
2017-02-03T06:30:36.081Z,0.31
2017-02-03T06:31:45.947Z,0.33
2017-02-03T06:32:56.185Z,0.36
2017-02-03T06:34:06.511Z,0.38
2017-02-03T06:35:16.389Z,0.45
2017-02-03T06:36:26.872Z,0.48
2017-02-03T06:37:36.879Z,0.48
2017-02-03T06:38:46.723Z,0.5
2017-02-03T06:39:56.983Z,0.48
2017-02-03T06:41:06.824Z,0.48
2017-02-03T06:42:17.415Z,0.48
2017-02-03T06:43:27.684Z,0.5
2017-02-03T06:44:37.561Z,0.45
2017-02-03T06:45:47.830Z,0.38
2017-02-03T06:46:58.073Z,0.43
2017-02-03T06:48:08.171Z,0.4
2017-02-03T06:49:17.625Z,0.43
2017-02-03T06:50:27.074Z,0.46
2017-02-03T06:51:37.310Z,0.49
2017-02-03T06:52:47.170Z,0.46
2017-02-03T06:53:57.659Z,0.49
2017-02-03T06:55:07.900Z,0.48
2017-02-03T06:56:18.151Z,0.46
2017-02-03T06:57:28.150Z,0.58
2017-02-03T06:58:38.057Z,0.54
2017-02-03T06:59:48.656Z,0.66
2017-02-03T07:00:58.493Z,0.57
2017-02-03T07:02:08.780Z,0.6
2017-02-03T07:03:18.700Z,0.67
2017-02-03T07:04:29.028Z,0.63
2017-02-03T07:05:39.139Z,0.68
2017-02-03T07:06:48.724Z,0.76
2017-02-03T07:07:58.587Z,0.72
2017-02-03T07:09:08.821Z,0.74
2017-02-03T07:10:19.071Z,0.74
2017-02-03T07:11:28.794Z,0.75
2017-02-03T07:12:39.061Z,0.81
2017-02-03T07:13:49.310Z,0.81
2017-02-03T07:14:59.594Z,0.84
2017-02-03T07:16:09.494Z,0.81
2017-02-03T07:17:19.602Z,0.81
2017-02-03T07:18:29.448Z,0.81
2017-02-03T07:19:39.290Z,0.81
2017-02-03T07:20:49.532Z,0.85
2017-02-03T07:21:59.405Z,0.84
2017-02-03T07:23:10.052Z,0.84
2017-02-03T07:24:19.517Z,0.84
2017-02-03T07:25:29.757Z,0.76
2017-02-03T07:26:39.996Z,0.84
2017-02-03T07:27:50.269Z,0.79
2017-02-03T07:29:00.775Z,0.85
2017-02-03T07:30:11.084Z,0.82
2017-02-03T07:31:21.334Z,0.82
2017-02-03T07:32:31.174Z,0.85
2017-02-03T07:33:41.323Z,0.82
2017-02-03T07:34:51.927Z,0.79
2017-02-03T07:36:01.755Z,0.86
2017-02-03T07:37:11.992Z,0.85
2017-02-03T07:38:21.025Z,0.82
2017-02-03T07:39:30.590Z,0.78
2017-02-03T07:40:40.698Z,0.76
2017-02-03T07:41:50.548Z,0.93
2017-02-03T07:42:59.982Z,0.9
2017-02-03T07:44:09.828Z,0.9
2017-02-03T07:45:20.113Z,0.84
2017-02-03T07:46:30.240Z,0.96
2017-02-03T07:47:40.538Z,1
2017-02-03T07:48:50.826Z,1.08
2017-02-03T07:50:00.739Z,1.02
2017-02-03T07:51:10.179Z,1.06
2017-02-03T07:52:20.706Z,1.02
2017-02-03T07:53:30.999Z,1.02
2017-02-03T07:54:40.448Z,1.12
2017-02-03T07:55:49.886Z,1.03
2017-02-03T07:57:00.136Z,1.22
2017-02-03T07:58:09.908Z,1.2
2017-02-03T07:59:20.211Z,1.22
2017-02-03T08:00:29.651Z,1.25
2017-02-03T08:01:39.949Z,1.35
2017-02-03T08:02:50.234Z,1.3
2017-02-03T08:04:00.324Z,1.46
2017-02-03T08:05:10.573Z,1.42
2017-02-03T08:06:20.403Z,1.57
2017-02-03T08:07:29.833Z,1.48
2017-02-03T08:08:40.139Z,1.5
2017-02-03T08:09:49.904Z,1.67
2017-02-03T08:10:59.751Z,1.69
2017-02-03T08:12:09.658Z,1.79
2017-02-03T08:13:19.959Z,1.72
2017-02-03T08:14:30.240Z,1.82
2017-02-03T08:15:40.757Z,1.8
2017-02-03T08:16:50.666Z,1.88
2017-02-03T08:18:01.088Z,1.8
2017-02-03T08:19:11.344Z,1.87
2017-02-03T08:20:21.631Z,1.74
2017-02-03T08:21:32.183Z,1.82
2017-02-03T08:22:42.473Z,1.85
2017-02-03T08:23:52.747Z,1.79
2017-02-03T08:25:02.578Z,1.8
2017-02-03T08:26:12.445Z,1.77
2017-02-03T08:27:22.221Z,1.84
2017-02-03T08:28:32.076Z,1.82
2017-02-03T08:29:42.406Z,1.82
2017-02-03T08:30:51.920Z,1.88
2017-02-03T08:32:02.195Z,1.79
2017-02-03T08:33:11.976Z,1.79
2017-02-03T08:34:22.335Z,1.9
2017-02-03T08:35:32.629Z,1.85
2017-02-03T08:36:42.915Z,1.94
2017-02-03T08:37:52.807Z,2
2017-02-03T08:39:03.309Z,1.92
2017-02-03T08:40:13.148Z,1.88
2017-02-03T08:41:22.617Z,1.92
2017-02-03T08:42:32.864Z,1.95
2017-02-03T08:43:43.147Z,2.01
2017-02-03T08:44:53.310Z,2.05
2017-02-03T08:46:03.627Z,2.03
2017-02-03T08:47:13.867Z,2.09
2017-02-03T08:48:24.157Z,2.06
2017-02-03T08:49:34.122Z,2.12
2017-02-03T08:50:44.234Z,2.16
2017-02-03T08:51:54.148Z,2.21
2017-02-03T08:53:04.427Z,2.18
2017-02-03T08:54:14.663Z,2.18
2017-02-03T08:55:24.912Z,2.16
2017-02-03T08:56:35.063Z,2.16
2017-02-03T08:57:45.320Z,2.12
2017-02-03T08:58:55.574Z,2.18
2017-02-03T09:00:05.824Z,2.26
2017-02-03T09:01:16.133Z,2.27
2017-02-03T09:02:26.300Z,2.23
2017-02-03T09:03:36.176Z,2.23
2017-02-03T09:04:46.046Z,2.27
2017-02-03T09:05:56.442Z,2.21
2017-02-03T09:07:06.743Z,2.16
2017-02-03T09:08:17.280Z,2.21
2017-02-03T09:09:27.576Z,2.19
2017-02-03T09:10:37.861Z,2.27
2017-02-03T09:11:47.702Z,2.19
2017-02-03T09:12:57.968Z,2.21
2017-02-03T09:14:08.542Z,2.26
2017-02-03T09:15:18.807Z,2.27
2017-02-03T09:16:29.068Z,2.24
2017-02-03T09:17:39.471Z,2.31
2017-02-03T09:18:49.788Z,2.31
2017-02-03T09:20:00.334Z,2.3
2017-02-03T09:21:10.168Z,2.41
2017-02-03T09:22:20.048Z,2.39
2017-02-03T09:23:30.301Z,2.52
2017-02-03T09:24:40.557Z,2.62
2017-02-03T09:25:51.117Z,2.69
2017-02-03T09:27:00.971Z,2.7
2017-02-03T09:28:10.971Z,2.71
2017-02-03T09:29:21.221Z,2.71
2017-02-03T09:30:31.090Z,2.77
2017-02-03T09:31:41.248Z,2.79
2017-02-03T09:32:51.182Z,2.85
2017-02-03T09:34:01.148Z,2.82
2017-02-03T09:35:11.434Z,2.91
2017-02-03T09:36:21.862Z,2.88
2017-02-03T09:37:32.426Z,2.89
2017-02-03T09:38:41.943Z,3.02
2017-02-03T09:39:52.008Z,2.99
2017-02-03T09:41:02.267Z,3.11
2017-02-03T09:42:12.540Z,3.08
2017-02-03T09:43:22.697Z,3.22
2017-02-03T09:44:32.711Z,3.25
2017-02-03T09:45:42.624Z,3.25
2017-02-03T09:46:52.887Z,3.37
2017-02-03T09:48:01.947Z,3.37
2017-02-03T09:49:12.199Z,3.57
2017-02-03T09:50:22.056Z,3.68
2017-02-03T09:51:32.317Z,3.76
2017-02-03T09:52:42.214Z,3.86
2017-02-03T09:53:52.211Z,4.05
2017-02-03T09:55:02.761Z,4.2
2017-02-03T09:56:12.611Z,4.38
2017-02-03T09:57:22.873Z,4.7
2017-02-03T09:58:33.165Z,4.81
2017-02-03T09:59:43.020Z,5.1
2017-02-03T10:00:53.176Z,5.21
2017-02-03T10:02:02.729Z,5.43
2017-02-03T10:03:12.603Z,5.62
2017-02-03T10:04:22.888Z,5.8
2017-02-03T10:05:33.176Z,5.9
2017-02-03T10:06:43.357Z,6.08
2017-02-03T10:07:53.694Z,6.08
2017-02-03T10:09:03.586Z,6.12
2017-02-03T10:10:13.455Z,6.26
2017-02-03T10:11:23.382Z,6.27
2017-02-03T10:12:34.030Z,6.45
2017-02-03T10:13:44.304Z,6.44
2017-02-03T10:14:54.583Z,6.41
2017-02-03T10:16:04.456Z,6.28
2017-02-03T10:17:14.776Z,6.28
2017-02-03T10:18:25.629Z,6.3
2017-02-03T10:19:35.894Z,6.38
2017-02-03T10:20:45.766Z,6.34
2017-02-03T10:21:55.672Z,6.35
2017-02-03T10:23:05.915Z,6.35
2017-02-03T10:24:16.115Z,6.36
2017-02-03T10:25:25.982Z,6.27
2017-02-03T10:26:35.874Z,6.3
2017-02-03T10:27:45.775Z,6.17
2017-02-03T10:28:56.038Z,6.05
2017-02-03T10:30:06.664Z,5.98
2017-02-03T10:31:16.587Z,5.9
2017-02-03T10:32:26.923Z,5.83
2017-02-03T10:33:37.164Z,5.74
2017-02-03T10:34:47.414Z,5.54
2017-02-03T10:35:57.573Z,5.36
2017-02-03T10:37:07.926Z,5.18
2017-02-03T10:38:18.237Z,5.18
2017-02-03T10:39:28.514Z,4.99
2017-02-03T10:40:38.387Z,4.83
2017-02-03T10:41:48.559Z,4.83
2017-02-03T10:42:58.832Z,4.63
2017-02-03T10:44:09.211Z,4.67
2017-02-03T10:45:19.105Z,4.6
2017-02-03T10:46:29.388Z,4.49
2017-02-03T10:47:39.165Z,4.38
2017-02-03T10:48:49.565Z,4.37
2017-02-03T10:49:59.074Z,4.36
2017-02-03T10:51:08.606Z,4.25
2017-02-03T10:52:18.090Z,4.25
2017-02-03T10:53:28.681Z,4.23
2017-02-03T10:54:39.029Z,4.25
2017-02-03T10:55:49.342Z,4.2
2017-02-03T10:56:59.252Z,4.2
2017-02-03T10:58:09.574Z,4.25
2017-02-03T10:59:19.733Z,4.2
2017-02-03T11:00:30.026Z,4.19
2017-02-03T11:01:39.557Z,4.2
2017-02-03T11:02:49.859Z,4.19
2017-02-03T11:03:59.754Z,4.19
2017-02-03T11:05:09.518Z,4.22
2017-02-03T11:06:19.818Z,4.25
2017-02-03T11:07:30.150Z,4.22
2017-02-03T11:08:40.423Z,4.3
2017-02-03T11:09:49.880Z,4.2
2017-02-03T11:11:00.487Z,4.23
2017-02-03T11:12:10.811Z,4.16
2017-02-03T11:13:21.091Z,4.15
2017-02-03T11:14:31.359Z,4.19
2017-02-03T11:15:40.885Z,4.2
2017-02-03T11:16:51.454Z,4.2
2017-02-03T11:18:01.757Z,4.16
2017-02-03T11:19:11.602Z,4.22
2017-02-03T11:20:22.006Z,4.19
2017-02-03T11:21:32.299Z,4.15
2017-02-03T11:22:42.892Z,4.18
2017-02-03T11:23:53.149Z,4.09
2017-02-03T11:25:03.426Z,4.19
2017-02-03T11:26:13.697Z,4.19
2017-02-03T11:27:23.978Z,4.22
2017-02-03T11:28:34.280Z,4.12
2017-02-03T11:29:44.145Z,4.22
2017-02-03T11:30:54.005Z,4.2
2017-02-03T11:32:03.963Z,4.23
2017-02-03T11:33:14.282Z,4.16
2017-02-03T11:34:24.859Z,4.22
2017-02-03T11:35:34.730Z,4.19
2017-02-03T11:36:44.996Z,4.13
2017-02-03T11:37:55.337Z,4.16
2017-02-03T11:39:05.498Z,4.16
2017-02-03T11:40:16.079Z,4.19
2017-02-03T11:41:25.545Z,4.2
2017-02-03T11:42:35.440Z,4.22
2017-02-03T11:43:45.311Z,4.25
2017-02-03T11:44:54.766Z,4.13
2017-02-03T11:46:04.970Z,4.16
2017-02-03T11:47:14.824Z,4.18
2017-02-03T11:48:24.275Z,4.18
2017-02-03T11:49:34.536Z,4.09
2017-02-03T11:50:43.979Z,4.12
2017-02-03T11:51:54.269Z,4.15
2017-02-03T11:53:04.543Z,4.19
2017-02-03T11:54:14.797Z,4.22
2017-02-03T11:55:24.272Z,4.19
2017-02-03T11:56:34.678Z,4.2
2017-02-03T11:57:44.830Z,4.18
2017-02-03T11:58:55.110Z,4.19
2017-02-03T12:00:05.373Z,4.2
2017-02-03T12:01:15.258Z,4.16
2017-02-03T12:02:25.561Z,4.22
2017-02-03T12:03:35.818Z,4.22
2017-02-03T12:04:46.146Z,4.13
2017-02-03T12:05:56.391Z,4.12
2017-02-03T12:07:06.643Z,4.23
2017-02-03T12:08:16.554Z,4.11
2017-02-03T12:09:27.122Z,4.2
2017-02-03T12:10:37.524Z,4.25
2017-02-03T12:11:47.773Z,4.16
2017-02-03T12:12:58.018Z,4.18
2017-02-03T12:14:08.273Z,4.25
2017-02-03T12:15:18.436Z,4.23
2017-02-03T12:16:28.295Z,4.25
2017-02-03T12:17:37.740Z,4.22
2017-02-03T12:18:47.630Z,4.25
2017-02-03T12:19:57.892Z,4.15
2017-02-03T12:21:08.055Z,4.25
2017-02-03T12:22:17.915Z,4.2
2017-02-03T12:23:27.776Z,4.27
2017-02-03T12:24:38.060Z,4.19
2017-02-03T12:25:48.408Z,4.3
2017-02-03T12:26:59.010Z,4.25
2017-02-03T12:28:09.261Z,4.28
2017-02-03T12:29:19.182Z,4.37
2017-02-03T12:30:29.462Z,4.23
2017-02-03T12:31:39.742Z,4.34
2017-02-03T12:32:49.987Z,4.28
2017-02-03T12:34:00.284Z,4.31
2017-02-03T12:35:10.139Z,4.3
2017-02-03T12:36:20.014Z,4.31
2017-02-03T12:37:30.260Z,4.23
2017-02-03T12:38:40.531Z,4.23
2017-02-03T12:39:50.802Z,4.28
2017-02-03T12:41:00.646Z,4.31
2017-02-03T12:42:10.943Z,4.23
2017-02-03T12:43:21.320Z,4.23
2017-02-03T12:44:32.016Z,4.27
2017-02-03T12:45:42.262Z,4.19
2017-02-03T12:46:52.513Z,4.22
2017-02-03T12:48:02.424Z,4.28
2017-02-03T12:49:44.412Z,4.23
2017-02-03T12:50:54.696Z,4.18
2017-02-03T12:52:04.959Z,4.31
2017-02-03T12:53:14.916Z,4.34
2017-02-03T12:54:25.205Z,4.37
2017-02-03T12:55:35.799Z,4.3
2017-02-03T12:56:46.083Z,4.33
2017-02-03T12:57:55.995Z,4.3
2017-02-03T12:59:05.839Z,4.36
2017-02-03T13:00:16.074Z,4.31
2017-02-03T13:01:26.249Z,4.33
2017-02-03T13:02:36.112Z,4.41
2017-02-03T13:03:45.963Z,4.41
2017-02-03T13:04:55.845Z,4.34
2017-02-03T13:06:06.085Z,4.31
2017-02-03T13:07:16.293Z,4.38
2017-02-03T13:08:26.597Z,4.28
2017-02-03T13:09:36.877Z,4.31
2017-02-03T13:10:47.156Z,4.36
2017-02-03T13:11:56.993Z,4.33
2017-02-03T13:13:07.159Z,4.36
2017-02-03T13:14:17.517Z,4.33
2017-02-03T13:15:27.366Z,4.34
2017-02-03T13:16:37.653Z,4.34
2017-02-03T13:17:47.891Z,4.3
2017-02-03T13:18:58.042Z,4.34
2017-02-03T13:20:07.946Z,4.25
2017-02-03T13:21:18.195Z,4.33
2017-02-03T13:22:28.137Z,4.33
2017-02-03T13:23:38.416Z,4.31
2017-02-03T13:24:48.591Z,4.3
2017-02-03T13:25:58.882Z,4.4
2017-02-03T13:27:08.792Z,4.41
2017-02-03T13:28:19.120Z,4.36
2017-02-03T13:29:28.985Z,4.3
2017-02-03T13:30:39.171Z,4.46
2017-02-03T13:31:49.054Z,4.46
2017-02-03T13:32:59.011Z,4.41
2017-02-03T13:34:09.248Z,4.43
2017-02-03T13:35:19.498Z,4.38
2017-02-03T13:36:30.112Z,4.41
2017-02-03T13:37:40.001Z,4.49
2017-02-03T13:38:49.842Z,4.38
2017-02-03T13:39:59.690Z,4.43
2017-02-03T13:41:09.581Z,4.46
2017-02-03T13:42:20.240Z,4.38
2017-02-03T13:43:30.084Z,4.43
2017-02-03T13:44:39.951Z,4.41
2017-02-03T13:45:50.211Z,4.46
2017-02-03T13:47:00.474Z,4.47
2017-02-03T13:48:10.651Z,4.53
2017-02-03T13:49:20.107Z,4.53
2017-02-03T13:50:30.348Z,4.53
2017-02-03T13:51:40.369Z,4.52
2017-02-03T13:52:50.664Z,4.5
2017-02-03T13:54:01.238Z,4.52
2017-02-03T13:55:11.102Z,4.53
2017-02-03T13:56:21.382Z,4.53
2017-02-03T13:57:31.443Z,4.55
2017-02-03T13:58:41.409Z,4.53
2017-02-03T13:59:51.971Z,4.53
2017-02-03T14:01:02.233Z,4.47
2017-02-03T14:02:12.538Z,4.52
2017-02-03T14:03:22.791Z,4.53
2017-02-03T14:04:32.703Z,4.5
2017-02-03T14:05:42.899Z,4.52
2017-02-03T14:06:52.749Z,4.5
2017-02-03T14:08:03.033Z,4.53
2017-02-03T14:09:12.880Z,4.5
2017-02-03T14:10:22.716Z,4.53
2017-02-03T14:11:32.477Z,4.55
2017-02-03T14:12:42.364Z,4.52
2017-02-03T14:13:52.251Z,4.5
2017-02-03T14:15:02.511Z,4.53
2017-02-03T14:16:12.930Z,4.52
2017-02-03T14:17:23.489Z,4.49
2017-02-03T14:18:33.322Z,4.46
2017-02-03T14:19:43.226Z,4.43
2017-02-03T14:20:53.481Z,4.4
2017-02-03T14:22:03.383Z,4.41
2017-02-03T14:23:13.531Z,4.43
2017-02-03T14:24:23.791Z,4.43
2017-02-03T14:25:33.247Z,4.46
2017-02-03T14:26:43.507Z,4.4
2017-02-03T14:27:53.408Z,4.43
2017-02-03T14:29:03.570Z,4.46
2017-02-03T14:30:13.410Z,4.41
2017-02-03T14:31:23.377Z,4.38
2017-02-03T14:32:33.630Z,4.43
2017-02-03T14:33:43.493Z,4.41
2017-02-03T14:34:54.050Z,4.43
2017-02-03T14:36:04.422Z,4.4
2017-02-03T14:37:14.295Z,4.31
2017-02-03T14:38:24.143Z,4.46
2017-02-03T14:39:34.028Z,4.41
2017-02-03T14:40:44.564Z,4.31
